createdAt,value
2017-03-17T00:00:17.223Z,31.17
2017-03-17T00:01:16.127Z,44.87
2017-03-17T00:02:15.111Z,29.28
2017-03-17T00:03:14.310Z,37.63
2017-03-17T00:04:13.293Z,27.25
2017-03-17T00:05:12.293Z,33.67
2017-03-17T00:06:11.236Z,33.92
2017-03-17T00:07:09.718Z,35.62
2017-03-17T00:08:08.613Z,36.02
2017-03-17T00:09:08.195Z,35.53
2017-03-17T00:10:07.512Z,34.48
2017-03-17T00:11:06.528Z,31.58
2017-03-17T00:12:05.476Z,33.53
2017-03-17T00:13:04.377Z,36.58
2017-03-17T00:14:02.921Z,38.30
2017-03-17T00:15:02.204Z,28.83
2017-03-17T00:16:01.134Z,38.68
2017-03-17T00:16:59.676Z,34.13
2017-03-17T00:17:58.594Z,31.83
2017-03-17T00:18:57.499Z,32.80
2017-03-17T00:19:56.475Z,29.58
2017-03-17T00:20:55.684Z,40.78
2017-03-17T00:21:54.628Z,34.15
2017-03-17T00:22:53.571Z,35.72
2017-03-17T00:23:52.476Z,33.92
2017-03-17T00:24:51.395Z,33.30
2017-03-17T00:25:50.299Z,34.85
2017-03-17T00:26:49.584Z,35.58
2017-03-17T00:27:48.878Z,36.72
2017-03-17T00:28:47.804Z,34.00
2017-03-17T00:29:46.728Z,36.75
2017-03-17T00:30:45.662Z,33.32
2017-03-17T00:31:44.809Z,35.08
2017-03-17T00:32:44.099Z,31.90
2017-03-17T00:33:43.029Z,38.45
2017-03-17T00:34:41.920Z,39.00
2017-03-17T00:35:40.848Z,38.87
2017-03-17T00:36:39.826Z,38.10
2017-03-17T00:37:38.750Z,34.07
2017-03-17T00:38:38.021Z,31.52
2017-03-17T00:39:36.911Z,30.82
2017-03-17T00:40:35.449Z,35.07
2017-03-17T00:41:33.982Z,34.50
2017-03-17T00:42:32.870Z,36.92
2017-03-17T00:43:31.794Z,38.03
2017-03-17T00:44:30.647Z,35.27
2017-03-17T00:45:29.547Z,33.35
2017-03-17T00:46:28.292Z,34.87
2017-03-17T00:47:27.171Z,33.97
2017-03-17T00:48:26.051Z,31.93
2017-03-17T00:49:24.975Z,33.33
2017-03-17T00:50:24.140Z,31.83
2017-03-17T00:51:23.041Z,35.20
2017-03-17T00:52:21.955Z,35.60
2017-03-17T00:53:20.844Z,42.05
2017-03-17T00:54:19.776Z,37.38
2017-03-17T00:55:18.708Z,33.30
2017-03-17T00:56:17.949Z,39.37
2017-03-17T00:57:16.836Z,36.32
2017-03-17T00:58:15.776Z,35.58
2017-03-17T00:59:14.675Z,33.72
2017-03-17T01:00:13.200Z,37.58
2017-03-17T01:01:12.144Z,42.30
2017-03-17T01:02:11.007Z,43.27
2017-03-17T01:03:10.068Z,36.10
2017-03-17T01:04:08.976Z,34.05
2017-03-17T01:05:07.915Z,32.48
2017-03-17T01:06:06.840Z,33.93
2017-03-17T01:07:05.816Z,39.52
2017-03-17T01:08:05.004Z,31.22
2017-03-17T01:09:04.084Z,33.65
2017-03-17T01:10:02.959Z,36.50
2017-03-17T01:11:01.904Z,35.50
2017-03-17T01:12:00.836Z,36.93
2017-03-17T01:12:59.751Z,38.13
2017-03-17T01:13:59.036Z,37.33
2017-03-17T01:14:57.956Z,31.83
2017-03-17T01:15:56.900Z,36.27
2017-03-17T01:16:55.780Z,40.87
2017-03-17T01:17:54.288Z,44.60
2017-03-17T01:18:53.222Z,42.77
2017-03-17T01:19:52.501Z,36.38
2017-03-17T01:20:51.406Z,47.42
2017-03-17T01:21:50.292Z,36.72
2017-03-17T01:22:48.801Z,36.37
2017-03-17T01:23:47.714Z,38.58
2017-03-17T01:24:46.253Z,36.35
2017-03-17T01:25:45.448Z,40.95
2017-03-17T01:26:44.358Z,43.72
2017-03-17T01:27:43.719Z,39.92
2017-03-17T01:28:42.232Z,36.80
2017-03-17T01:29:40.744Z,40.32
2017-03-17T01:30:39.657Z,37.48
2017-03-17T01:31:38.958Z,42.95
2017-03-17T01:32:37.872Z,41.10
2017-03-17T01:33:36.391Z,39.72
2017-03-17T01:34:35.307Z,45.52
2017-03-17T01:35:34.237Z,39.32
2017-03-17T01:36:33.175Z,39.93
2017-03-17T01:37:32.378Z,41.78
2017-03-17T01:38:31.265Z,35.25
2017-03-17T01:39:29.779Z,41.12
2017-03-17T01:40:28.312Z,41.58
2017-03-17T01:41:27.207Z,42.72
2017-03-17T01:42:26.111Z,41.92
2017-03-17T01:43:25.003Z,42.23
2017-03-17T01:44:23.956Z,42.72
2017-03-17T01:45:22.925Z,33.42
2017-03-17T01:46:21.861Z,42.23
2017-03-17T01:47:20.776Z,44.33
2017-03-17T01:48:19.688Z,41.38
2017-03-17T01:49:18.908Z,35.95
2017-03-17T01:50:17.828Z,45.60
2017-03-17T01:51:16.395Z,35.47
2017-03-17T01:52:15.311Z,43.65
2017-03-17T01:53:14.245Z,48.60
2017-03-17T01:54:13.173Z,50.27
2017-03-17T01:55:12.383Z,47.23
2017-03-17T01:56:10.933Z,46.23
2017-03-17T01:57:09.915Z,45.55
2017-03-17T01:58:08.826Z,45.58
2017-03-17T01:59:07.755Z,42.82
2017-03-17T02:00:07.016Z,44.40
2017-03-17T02:01:06.282Z,49.85
2017-03-17T02:02:05.273Z,45.55
2017-03-17T02:03:04.160Z,47.40
2017-03-17T02:04:03.060Z,42.25
2017-03-17T02:05:02.009Z,43.65
2017-03-17T02:06:00.501Z,41.63
2017-03-17T02:06:59.775Z,44.47
2017-03-17T02:07:58.703Z,44.85
2017-03-17T02:08:57.775Z,46.80
2017-03-17T02:09:56.376Z,46.08
2017-03-17T02:10:55.477Z,45.27
2017-03-17T02:11:54.413Z,46.02
2017-03-17T02:12:53.661Z,43.12
2017-03-17T02:13:52.678Z,40.80
2017-03-17T02:14:51.595Z,44.22
2017-03-17T02:15:50.515Z,45.65
2017-03-17T02:16:49.446Z,45.37
2017-03-17T02:17:48.388Z,41.07
2017-03-17T02:18:47.547Z,36.28
2017-03-17T02:19:46.072Z,38.28
2017-03-17T02:20:45.033Z,40.33
2017-03-17T02:21:43.566Z,41.50
2017-03-17T02:22:42.479Z,43.98
2017-03-17T02:23:41.432Z,44.77
2017-03-17T02:24:40.663Z,42.42
2017-03-17T02:25:39.620Z,42.55
2017-03-17T02:26:38.145Z,39.82
2017-03-17T02:27:36.661Z,40.73
2017-03-17T02:28:35.184Z,42.73
2017-03-17T02:29:34.069Z,38.57
2017-03-17T02:30:33.314Z,51.67
2017-03-17T02:31:32.247Z,43.72
2017-03-17T02:32:31.160Z,48.08
2017-03-17T02:33:29.705Z,50.68
2017-03-17T02:34:28.628Z,50.28
2017-03-17T02:35:27.546Z,43.55
2017-03-17T02:36:26.696Z,36.30
2017-03-17T02:37:25.615Z,44.42
2017-03-17T02:38:24.555Z,41.82
2017-03-17T02:39:23.538Z,40.38
2017-03-17T02:40:22.130Z,39.97
2017-03-17T02:41:20.729Z,44.03
2017-03-17T02:42:19.974Z,48.00
2017-03-17T02:43:18.862Z,38.68
2017-03-17T02:44:17.871Z,43.57
2017-03-17T02:45:16.788Z,50.95
2017-03-17T02:46:15.707Z,44.32
2017-03-17T02:47:14.641Z,42.30
2017-03-17T02:48:13.870Z,44.22
2017-03-17T02:49:12.873Z,50.90
2017-03-17T02:50:11.408Z,45.60
2017-03-17T02:51:10.321Z,44.47
2017-03-17T02:52:09.209Z,41.98
2017-03-17T02:53:08.113Z,41.40
2017-03-17T02:54:07.354Z,42.03
2017-03-17T02:55:06.343Z,47.60
2017-03-17T02:56:04.916Z,47.88
2017-03-17T02:57:04.190Z,48.08
2017-03-17T02:58:02.676Z,61.72
2017-03-17T02:59:01.627Z,50.48
2017-03-17T03:00:01.046Z,46.12
2017-03-17T03:01:00.061Z,50.10
2017-03-17T03:01:58.960Z,45.50
2017-03-17T03:02:57.882Z,42.25
2017-03-17T03:03:56.809Z,53.32
2017-03-17T03:04:55.323Z,43.92
2017-03-17T03:05:54.216Z,45.68
2017-03-17T03:06:53.140Z,50.07
2017-03-17T03:07:52.054Z,44.85
2017-03-17T03:08:50.941Z,46.03
2017-03-17T03:09:49.874Z,57.48
2017-03-17T03:10:48.850Z,41.65
2017-03-17T03:11:48.224Z,51.32
2017-03-17T03:12:46.716Z,50.28
2017-03-17T03:13:45.241Z,48.93
2017-03-17T03:14:44.151Z,46.15
2017-03-17T03:15:43.406Z,50.07
2017-03-17T03:16:42.389Z,46.12
2017-03-17T03:17:41.714Z,54.82
2017-03-17T03:18:41.019Z,54.68
2017-03-17T03:19:39.963Z,56.10
2017-03-17T03:20:38.905Z,61.67
2017-03-17T03:21:37.440Z,66.02
2017-03-17T03:22:36.310Z,64.85
2017-03-17T03:23:35.208Z,76.05
2017-03-17T03:24:33.712Z,88.28
2017-03-17T03:25:32.656Z,75.40
2017-03-17T03:26:31.572Z,63.68
2017-03-17T03:27:30.133Z,77.80
2017-03-17T03:28:28.642Z,68.58
2017-03-17T03:29:27.851Z,70.90
2017-03-17T03:30:26.793Z,67.17
2017-03-17T03:31:25.755Z,55.82
2017-03-17T03:32:24.296Z,60.48
2017-03-17T03:33:23.557Z,60.07
2017-03-17T03:34:22.478Z,54.48
2017-03-17T03:35:21.335Z,59.88
2017-03-17T03:36:20.240Z,61.00
2017-03-17T03:37:19.128Z,54.22
2017-03-17T03:38:17.639Z,53.45
2017-03-17T03:39:16.543Z,62.27
2017-03-17T03:40:15.509Z,62.77
2017-03-17T03:41:14.735Z,60.63
2017-03-17T03:42:13.627Z,55.30
2017-03-17T03:43:12.570Z,56.15
2017-03-17T03:44:11.539Z,53.20
2017-03-17T03:45:10.440Z,56.33
2017-03-17T03:46:09.400Z,61.55
2017-03-17T03:47:08.621Z,47.12
2017-03-17T03:48:07.569Z,51.88
2017-03-17T03:49:06.503Z,51.35
2017-03-17T03:50:05.020Z,51.50
2017-03-17T03:51:03.956Z,47.67
2017-03-17T03:52:02.884Z,54.07
2017-03-17T03:53:02.629Z,44.03
2017-03-17T03:54:01.540Z,47.58
2017-03-17T03:55:00.427Z,51.67
2017-03-17T03:55:59.328Z,47.83
2017-03-17T03:56:58.229Z,57.25
2017-03-17T03:57:57.176Z,46.17
2017-03-17T03:58:56.378Z,48.12
2017-03-17T03:59:55.424Z,55.70
2017-03-17T04:00:54.035Z,55.42
2017-03-17T04:01:52.927Z,56.20
2017-03-17T04:02:51.884Z,60.53
2017-03-17T04:03:50.838Z,61.88
2017-03-17T04:04:50.018Z,64.72
2017-03-17T04:05:48.957Z,62.03
2017-03-17T04:06:47.903Z,62.97
2017-03-17T04:07:46.812Z,60.67
2017-03-17T04:08:45.740Z,60.55
2017-03-17T04:09:44.675Z,58.33
2017-03-17T04:10:44.012Z,59.53
2017-03-17T04:11:42.964Z,60.17
2017-03-17T04:12:41.468Z,62.52
2017-03-17T04:13:39.953Z,63.05
2017-03-17T04:14:38.913Z,59.18
2017-03-17T04:15:38.177Z,53.53
2017-03-17T04:16:37.453Z,63.50
2017-03-17T04:17:36.640Z,59.08
2017-03-17T04:18:35.617Z,64.07
2017-03-17T04:19:34.179Z,65.20
2017-03-17T04:20:33.088Z,61.78
2017-03-17T04:21:32.018Z,56.00
2017-03-17T04:22:31.282Z,59.28
2017-03-17T04:23:30.219Z,52.77
2017-03-17T04:24:29.182Z,52.90
2017-03-17T04:25:28.088Z,51.58
2017-03-17T04:26:26.969Z,68.05
2017-03-17T04:27:25.888Z,50.90
2017-03-17T04:28:24.656Z,56.62
2017-03-17T04:29:23.569Z,57.73
2017-03-17T04:30:22.481Z,54.20
2017-03-17T04:31:21.397Z,57.93
2017-03-17T04:32:19.900Z,60.15
2017-03-17T04:33:18.805Z,54.93
2017-03-17T04:34:17.984Z,55.20
2017-03-17T04:35:16.531Z,49.33
2017-03-17T04:36:15.424Z,54.50
2017-03-17T04:37:14.337Z,60.17
2017-03-17T04:38:13.259Z,55.35
2017-03-17T04:39:12.129Z,51.30
2017-03-17T04:40:11.334Z,54.48
2017-03-17T04:41:10.240Z,60.33
2017-03-17T04:42:09.213Z,74.70
2017-03-17T04:43:08.100Z,54.92
2017-03-17T04:44:06.599Z,56.42
2017-03-17T04:45:05.520Z,55.02
2017-03-17T04:46:04.715Z,60.38
2017-03-17T04:47:03.691Z,51.28
2017-03-17T04:48:02.949Z,47.82
2017-03-17T04:49:01.861Z,53.57
2017-03-17T04:50:00.756Z,56.73
2017-03-17T04:50:59.655Z,53.23
2017-03-17T04:51:58.917Z,56.27
2017-03-17T04:52:57.803Z,53.27
2017-03-17T04:53:56.688Z,62.62
2017-03-17T04:54:55.639Z,62.42
2017-03-17T04:55:54.138Z,56.55
2017-03-17T04:56:53.059Z,54.45
2017-03-17T04:57:52.302Z,68.50
2017-03-17T04:58:51.301Z,58.80
2017-03-17T04:59:50.224Z,59.43
2017-03-17T05:00:49.154Z,60.25
2017-03-17T05:01:47.677Z,64.15
2017-03-17T05:02:46.566Z,63.53
2017-03-17T05:03:45.793Z,60.62
2017-03-17T05:04:44.316Z,57.23
2017-03-17T05:05:43.224Z,60.72
2017-03-17T05:06:42.168Z,67.40
2017-03-17T05:07:40.720Z,57.27
2017-03-17T05:08:39.740Z,59.60
2017-03-17T05:09:38.966Z,63.53
2017-03-17T05:10:37.864Z,60.97
2017-03-17T05:11:36.730Z,59.60
2017-03-17T05:12:35.658Z,55.17
2017-03-17T05:13:34.603Z,62.28
2017-03-17T05:14:33.564Z,68.45
2017-03-17T05:15:33.132Z,61.77
2017-03-17T05:16:32.088Z,57.03
2017-03-17T05:17:31.012Z,59.73
2017-03-17T05:18:30.021Z,62.62
2017-03-17T05:19:28.505Z,57.42
2017-03-17T05:20:27.380Z,62.15
2017-03-17T05:21:26.548Z,64.42
2017-03-17T05:22:25.048Z,57.12
2017-03-17T05:23:23.965Z,64.90
2017-03-17T05:24:22.881Z,62.65
2017-03-17T05:25:21.785Z,56.95
2017-03-17T05:26:20.695Z,56.67
2017-03-17T05:27:19.526Z,55.93
2017-03-17T05:28:18.025Z,63.98
2017-03-17T05:29:16.959Z,61.00
2017-03-17T05:30:15.893Z,67.27
2017-03-17T05:31:14.757Z,66.60
2017-03-17T05:32:13.261Z,69.67
2017-03-17T05:33:12.602Z,72.52
2017-03-17T05:34:11.521Z,70.62
2017-03-17T05:35:10.451Z,74.08
2017-03-17T05:36:09.024Z,66.67
2017-03-17T05:37:07.952Z,66.73
2017-03-17T05:38:06.467Z,61.93
2017-03-17T05:39:05.978Z,66.80
2017-03-17T05:40:04.931Z,71.37
2017-03-17T05:41:03.913Z,68.42
2017-03-17T05:42:02.796Z,71.37
2017-03-17T05:43:01.725Z,69.20
2017-03-17T05:44:00.700Z,65.60
2017-03-17T05:44:59.881Z,63.20
2017-03-17T05:45:58.780Z,65.98
2017-03-17T05:46:57.684Z,78.13
2017-03-17T05:47:56.754Z,61.52
2017-03-17T05:48:55.648Z,56.98
2017-03-17T05:49:54.222Z,67.00
2017-03-17T05:50:53.474Z,67.08
2017-03-17T05:51:52.564Z,64.37
2017-03-17T05:52:51.537Z,59.13
2017-03-17T05:53:52.125Z,66.38
2017-03-17T05:54:51.107Z,57.35
2017-03-17T05:55:50.133Z,59.17
2017-03-17T05:56:52.002Z,54.40
2017-03-17T05:57:52.213Z,62.63
2017-03-17T05:58:53.350Z,54.52
2017-03-17T05:59:51.977Z,58.78
2017-03-17T06:00:51.226Z,60.03
2017-03-17T06:01:51.708Z,59.58
2017-03-17T06:02:51.473Z,58.70
2017-03-17T06:03:50.392Z,56.67
2017-03-17T06:04:48.924Z,49.63
2017-03-17T06:05:47.834Z,57.05
2017-03-17T06:06:46.790Z,53.02
2017-03-17T06:07:48.112Z,56.77
2017-03-17T06:08:48.701Z,58.30
2017-03-17T06:09:47.233Z,59.77
2017-03-17T06:10:45.757Z,50.95
2017-03-17T06:11:44.762Z,59.12
2017-03-17T06:12:44.392Z,53.25
2017-03-17T06:13:43.699Z,57.78
2017-03-17T06:14:43.228Z,50.88
2017-03-17T06:15:42.311Z,52.50
2017-03-17T06:16:42.675Z,56.52
2017-03-17T06:17:41.700Z,49.52
2017-03-17T06:18:40.628Z,54.60
2017-03-17T06:19:39.833Z,49.32
2017-03-17T06:20:39.673Z,49.85
2017-03-17T06:21:38.685Z,52.62
2017-03-17T06:22:37.843Z,49.03
2017-03-17T06:23:37.224Z,45.93
2017-03-17T06:24:37.282Z,49.30
2017-03-17T06:25:37.137Z,49.53
2017-03-17T06:26:36.060Z,44.53
2017-03-17T06:27:34.996Z,59.50
2017-03-17T06:28:33.942Z,43.65
2017-03-17T06:29:32.904Z,43.40
2017-03-17T06:30:31.784Z,51.20
2017-03-17T06:31:31.011Z,52.28
2017-03-17T06:32:29.506Z,41.02
2017-03-17T06:33:28.002Z,47.93
2017-03-17T06:34:26.905Z,48.18
2017-03-17T06:35:25.817Z,42.77
2017-03-17T06:36:24.740Z,41.27
2017-03-17T06:37:23.995Z,40.67
2017-03-17T06:38:22.957Z,39.10
2017-03-17T06:39:21.880Z,43.20
2017-03-17T06:40:20.788Z,38.58
2017-03-17T06:41:19.793Z,36.98
2017-03-17T06:42:18.712Z,43.63
2017-03-17T06:43:17.579Z,38.93
2017-03-17T06:44:16.519Z,37.48
2017-03-17T06:45:15.425Z,36.25
2017-03-17T06:46:14.349Z,37.93
2017-03-17T06:47:13.680Z,33.42
2017-03-17T06:48:12.604Z,35.53
2017-03-17T06:49:14.542Z,37.48
2017-03-17T06:50:13.443Z,37.32
2017-03-17T06:51:12.319Z,42.45
2017-03-17T06:52:11.247Z,38.85
2017-03-17T06:53:10.206Z,45.55
2017-03-17T06:54:10.520Z,41.92
2017-03-17T06:55:09.867Z,40.95
2017-03-17T06:56:09.021Z,40.88
2017-03-17T06:57:07.980Z,40.67
2017-03-17T06:58:06.901Z,41.67
2017-03-17T06:59:05.856Z,45.87
2017-03-17T07:00:04.762Z,41.57
2017-03-17T07:01:04.652Z,40.72
2017-03-17T07:02:03.573Z,39.52
2017-03-17T07:03:02.057Z,39.50
2017-03-17T07:04:00.973Z,42.08
2017-03-17T07:04:59.889Z,38.87
2017-03-17T07:05:58.785Z,40.73
2017-03-17T07:06:58.090Z,34.38
2017-03-17T07:07:56.630Z,36.67
2017-03-17T07:08:55.558Z,42.12
2017-03-17T07:09:54.493Z,40.07
2017-03-17T07:10:53.420Z,36.40
2017-03-17T07:11:51.933Z,35.10
2017-03-17T07:12:50.745Z,39.42
2017-03-17T07:13:49.633Z,38.12
2017-03-17T07:14:48.576Z,35.12
2017-03-17T07:15:47.457Z,37.90
2017-03-17T07:16:46.730Z,38.45
2017-03-17T07:17:45.710Z,37.32
2017-03-17T07:18:45.572Z,32.25
2017-03-17T07:19:44.100Z,37.47
2017-03-17T07:20:43.005Z,33.73
2017-03-17T07:21:41.888Z,38.92
2017-03-17T07:22:40.812Z,34.97
2017-03-17T07:23:39.840Z,36.87
2017-03-17T07:24:38.992Z,45.00
2017-03-17T07:25:37.905Z,32.15
2017-03-17T07:26:36.847Z,34.42
2017-03-17T07:27:35.741Z,36.25
2017-03-17T07:28:34.631Z,34.47
2017-03-17T07:29:33.533Z,33.40
2017-03-17T07:30:32.683Z,33.12
2017-03-17T07:31:31.612Z,41.00
2017-03-17T07:32:30.136Z,35.90
2017-03-17T07:33:29.529Z,35.95
2017-03-17T07:34:28.416Z,37.82
2017-03-17T07:35:27.335Z,40.35
2017-03-17T07:36:27.208Z,30.30
2017-03-17T07:37:26.221Z,34.58
2017-03-17T07:38:25.105Z,32.25
2017-03-17T07:39:24.074Z,29.75
2017-03-17T07:40:22.966Z,34.73
2017-03-17T07:41:21.484Z,37.60
2017-03-17T07:42:20.725Z,36.00
2017-03-17T07:43:19.632Z,29.75
2017-03-17T07:44:18.549Z,32.27
2017-03-17T07:45:17.471Z,33.70
2017-03-17T07:46:16.000Z,32.32
2017-03-17T07:47:15.216Z,37.40
2017-03-17T07:48:14.436Z,37.72
2017-03-17T07:49:13.380Z,34.42
2017-03-17T07:50:12.327Z,28.45
2017-03-17T07:51:11.676Z,33.82
2017-03-17T07:52:13.428Z,34.25
2017-03-17T07:53:12.496Z,34.07
2017-03-17T07:54:13.391Z,32.37
2017-03-17T07:55:11.968Z,29.55
2017-03-17T07:56:10.906Z,31.55
2017-03-17T07:57:10.067Z,34.40
2017-03-17T07:58:09.021Z,32.35
2017-03-17T07:59:08.453Z,36.05
2017-03-17T08:00:07.392Z,30.28
2017-03-17T08:01:06.313Z,38.12
2017-03-17T08:02:05.469Z,33.67
2017-03-17T08:03:05.139Z,32.58
2017-03-17T08:04:04.063Z,37.83
2017-03-17T08:05:03.461Z,30.58
2017-03-17T08:06:02.460Z,33.35
2017-03-17T08:07:01.482Z,30.42
2017-03-17T08:08:00.464Z,30.90
2017-03-17T08:08:59.426Z,32.87
2017-03-17T08:09:58.343Z,34.92
2017-03-17T08:10:57.592Z,34.67
2017-03-17T08:11:56.104Z,31.15
2017-03-17T08:12:55.057Z,39.42
2017-03-17T08:13:54.295Z,31.05
2017-03-17T08:14:53.268Z,32.18
2017-03-17T08:15:52.580Z,33.12
2017-03-17T08:16:51.794Z,29.42
2017-03-17T08:17:50.953Z,34.87
2017-03-17T08:18:49.852Z,30.52
2017-03-17T08:19:48.378Z,31.95
2017-03-17T08:20:47.460Z,30.28
2017-03-17T08:21:46.335Z,35.10
2017-03-17T08:22:45.593Z,32.58
2017-03-17T08:23:44.517Z,32.72
2017-03-17T08:24:43.397Z,30.20
2017-03-17T08:25:42.547Z,35.48
2017-03-17T08:26:41.088Z,33.73
2017-03-17T08:27:40.008Z,38.08
2017-03-17T08:28:39.279Z,32.48
2017-03-17T08:29:38.370Z,35.32
2017-03-17T08:30:37.286Z,36.60
2017-03-17T08:31:36.188Z,34.03
2017-03-17T08:32:35.086Z,36.12
2017-03-17T08:33:33.989Z,32.77
2017-03-17T08:34:33.175Z,34.32
2017-03-17T08:35:32.076Z,31.33
2017-03-17T08:36:30.960Z,39.52
2017-03-17T08:37:29.878Z,36.98
2017-03-17T08:38:28.788Z,34.45
2017-03-17T08:39:27.703Z,35.80
2017-03-17T08:40:26.567Z,35.53
2017-03-17T08:41:25.541Z,39.18
2017-03-17T08:42:24.824Z,35.47
2017-03-17T08:43:23.732Z,34.87
2017-03-17T08:44:22.696Z,36.85
2017-03-17T08:45:21.572Z,32.12
2017-03-17T08:46:20.862Z,39.68
2017-03-17T08:47:19.795Z,32.03
2017-03-17T08:48:18.693Z,33.48
2017-03-17T08:49:17.638Z,34.15
2017-03-17T08:50:16.541Z,34.33
2017-03-17T08:51:15.464Z,40.18
2017-03-17T08:52:14.769Z,32.90
2017-03-17T08:53:13.791Z,37.37
2017-03-17T08:54:12.710Z,29.08
2017-03-17T08:55:11.253Z,35.73
2017-03-17T08:56:10.219Z,34.92
2017-03-17T08:57:09.160Z,42.92
2017-03-17T08:58:08.042Z,36.63
2017-03-17T08:59:06.996Z,38.92
2017-03-17T09:00:05.967Z,43.03
2017-03-17T09:01:04.910Z,38.43
2017-03-17T09:02:03.927Z,38.58
2017-03-17T09:03:02.485Z,34.87
2017-03-17T09:04:01.735Z,33.28
2017-03-17T09:05:01.044Z,42.03
2017-03-17T09:06:00.071Z,38.00
2017-03-17T09:06:59.012Z,33.03
2017-03-17T09:07:57.936Z,38.73
2017-03-17T09:08:56.883Z,35.98
2017-03-17T09:09:56.131Z,38.38
2017-03-17T09:10:55.083Z,39.70
2017-03-17T09:11:54.001Z,40.52
2017-03-17T09:12:52.951Z,38.02
2017-03-17T09:13:51.875Z,33.95
2017-03-17T09:14:51.106Z,35.75
2017-03-17T09:15:50.344Z,38.62
2017-03-17T09:16:49.250Z,35.23
2017-03-17T09:17:48.273Z,37.63
2017-03-17T09:18:47.239Z,42.82
2017-03-17T09:19:46.141Z,36.73
2017-03-17T09:20:45.106Z,45.18
2017-03-17T09:21:44.345Z,35.42
2017-03-17T09:22:43.241Z,40.80
2017-03-17T09:23:42.153Z,37.53
2017-03-17T09:24:41.182Z,40.17
2017-03-17T09:25:41.057Z,35.92
2017-03-17T09:26:40.055Z,39.68
2017-03-17T09:27:38.956Z,37.30
2017-03-17T09:28:37.860Z,35.83
2017-03-17T09:29:36.790Z,37.80
2017-03-17T09:30:36.977Z,39.40
2017-03-17T09:31:36.056Z,35.97
2017-03-17T09:32:34.980Z,36.52
2017-03-17T09:33:33.876Z,41.77
2017-03-17T09:34:32.404Z,41.15
2017-03-17T09:35:31.328Z,36.20
2017-03-17T09:36:30.282Z,38.75
2017-03-17T09:47:14.952Z,45.93
2017-03-17T09:48:13.837Z,47.68
2017-03-17T09:49:12.729Z,61.07
2017-03-17T09:50:11.620Z,52.22
2017-03-17T09:51:10.529Z,51.10
2017-03-17T09:52:09.036Z,50.28
2017-03-17T09:53:07.901Z,52.03
2017-03-17T09:54:07.229Z,48.47
2017-03-17T09:55:06.160Z,46.30
2017-03-17T09:56:07.183Z,44.08
2017-03-17T09:57:06.388Z,42.32
2017-03-17T09:58:05.653Z,39.87
2017-03-17T09:59:04.440Z,44.38
2017-03-17T10:00:03.020Z,42.93
2017-03-17T10:01:02.455Z,45.50
2017-03-17T10:02:01.477Z,46.25
2017-03-17T10:03:00.384Z,48.98
2017-03-17T10:03:59.285Z,49.62
2017-03-17T10:04:58.146Z,40.80
2017-03-17T10:05:57.514Z,43.08
2017-03-17T10:06:56.473Z,52.58
2017-03-17T10:07:55.465Z,54.32
2017-03-17T10:08:54.399Z,41.95
2017-03-17T10:09:53.369Z,46.28
2017-03-17T10:10:52.966Z,55.85
2017-03-17T10:11:51.988Z,53.90
2017-03-17T10:12:50.899Z,63.87
2017-03-17T10:13:49.781Z,59.57
2017-03-17T10:14:49.701Z,60.45
2017-03-17T10:15:48.979Z,56.50
2017-03-17T10:16:48.169Z,53.95
2017-03-17T10:17:47.089Z,62.55
2017-03-17T10:18:46.470Z,67.65
2017-03-17T10:19:44.979Z,64.40
2017-03-17T10:20:43.940Z,60.97
2017-03-17T10:21:42.844Z,61.13
2017-03-17T10:22:42.076Z,64.73
2017-03-17T10:23:41.152Z,70.67
2017-03-17T10:24:40.062Z,73.30
2017-03-17T10:25:38.979Z,68.02
2017-03-17T10:26:37.527Z,75.08
2017-03-17T10:27:40.899Z,68.15
2017-03-17T10:28:40.288Z,65.30
2017-03-17T10:29:39.538Z,69.52
2017-03-17T10:30:38.461Z,70.83
2017-03-17T10:31:37.374Z,67.57
2017-03-17T10:32:38.005Z,70.23
2017-03-17T10:33:39.281Z,66.33
2017-03-17T10:34:38.587Z,71.30
2017-03-17T10:35:37.104Z,66.07
2017-03-17T10:36:35.680Z,66.92
2017-03-17T10:37:34.577Z,65.05
2017-03-17T10:38:33.500Z,65.70
2017-03-17T10:39:32.423Z,59.43
2017-03-17T10:40:32.005Z,64.47
2017-03-17T10:41:31.446Z,67.87
2017-03-17T10:42:30.647Z,67.02
2017-03-17T10:43:29.554Z,62.95
2017-03-17T10:44:29.399Z,63.77
2017-03-17T10:45:33.377Z,60.32
2017-03-17T10:46:32.463Z,62.80
2017-03-17T10:47:31.017Z,59.75
2017-03-17T10:48:30.048Z,58.20
2017-03-17T10:49:29.010Z,60.03
2017-03-17T10:50:28.095Z,63.88
2017-03-17T10:51:27.455Z,58.93
2017-03-17T10:52:26.393Z,65.17
2017-03-17T10:53:25.318Z,57.80
2017-03-17T10:54:23.852Z,63.47
2017-03-17T10:55:22.748Z,56.02
2017-03-17T10:56:21.655Z,61.65
2017-03-17T10:57:20.524Z,60.45
2017-03-17T10:58:19.484Z,57.53
2017-03-17T10:59:17.988Z,65.00
2017-03-17T11:00:17.039Z,58.70
2017-03-17T11:01:15.628Z,55.07
2017-03-17T11:02:15.307Z,58.42
2017-03-17T11:03:14.260Z,54.82
2017-03-17T11:04:13.394Z,57.93
2017-03-17T11:05:12.297Z,63.27
2017-03-17T11:06:11.226Z,64.00
2017-03-17T11:07:10.186Z,59.58
2017-03-17T11:08:09.018Z,55.18
2017-03-17T11:09:09.014Z,54.70
2017-03-17T11:10:07.929Z,55.32
2017-03-17T11:11:06.918Z,52.68
2017-03-17T11:12:05.854Z,48.50
2017-03-17T11:13:04.800Z,50.78
2017-03-17T11:14:04.048Z,55.38
2017-03-17T11:15:02.641Z,54.27
2017-03-17T11:16:01.195Z,58.57
2017-03-17T11:17:00.444Z,52.52
2017-03-17T11:17:59.464Z,55.15
2017-03-17T11:18:58.377Z,58.15
2017-03-17T11:19:57.635Z,52.32
2017-03-17T11:20:56.575Z,45.13
2017-03-17T11:21:55.530Z,49.52
2017-03-17T11:22:54.457Z,51.85
2017-03-17T11:23:53.376Z,51.83
2017-03-17T11:24:52.301Z,49.98
2017-03-17T11:25:51.483Z,58.18
2017-03-17T11:26:50.440Z,54.42
2017-03-17T11:27:49.045Z,52.35
2017-03-17T11:28:47.623Z,52.45
2017-03-17T11:29:46.606Z,53.23
2017-03-17T11:30:45.532Z,52.17
2017-03-17T11:31:44.799Z,51.28
2017-03-17T11:32:43.739Z,57.75
2017-03-17T11:33:42.630Z,53.12
2017-03-17T11:34:41.507Z,46.90
2017-03-17T11:35:40.430Z,54.08
2017-03-17T11:36:38.944Z,57.17
2017-03-17T11:37:37.780Z,54.98
2017-03-17T11:38:36.779Z,50.15
2017-03-17T11:39:35.704Z,48.90
2017-03-17T11:40:34.877Z,49.87
2017-03-17T11:41:33.804Z,51.43
2017-03-17T11:42:32.751Z,53.23
2017-03-17T11:43:31.992Z,53.25
2017-03-17T11:44:30.898Z,55.30
2017-03-17T11:45:29.819Z,56.40
2017-03-17T11:46:28.751Z,49.93
2017-03-17T11:47:27.699Z,53.48
2017-03-17T11:48:26.646Z,49.82
2017-03-17T11:49:25.883Z,52.38
2017-03-17T11:50:24.857Z,52.95
2017-03-17T11:51:24.176Z,60.70
2017-03-17T11:52:23.328Z,50.98
2017-03-17T11:53:22.237Z,49.12
2017-03-17T11:54:21.178Z,50.20
2017-03-17T11:55:20.086Z,46.07
2017-03-17T11:56:19.552Z,52.42
2017-03-17T11:57:18.464Z,55.57
2017-03-17T11:58:17.392Z,53.83
2017-03-17T11:59:16.357Z,52.32
2017-03-17T12:00:15.280Z,52.35
2017-03-17T12:01:14.480Z,53.87
2017-03-17T12:02:12.976Z,46.33
2017-03-17T12:03:11.469Z,50.37
2017-03-17T12:04:10.467Z,48.27
2017-03-17T12:05:09.399Z,45.82
2017-03-17T12:06:08.291Z,42.12
2017-03-17T12:07:07.564Z,47.75
2017-03-17T12:08:06.081Z,46.35
2017-03-17T12:09:05.851Z,48.75
2017-03-17T12:10:04.751Z,50.73
2017-03-17T12:11:03.555Z,45.80
2017-03-17T12:12:02.548Z,48.95
2017-03-17T12:13:01.877Z,44.98
2017-03-17T12:14:00.796Z,52.47
2017-03-17T12:15:00.496Z,46.57
2017-03-17T12:15:59.416Z,43.98
2017-03-17T12:16:58.667Z,51.42
2017-03-17T12:17:57.580Z,43.77
2017-03-17T12:18:59.003Z,49.08
2017-03-17T12:19:59.197Z,45.17
2017-03-17T12:20:58.124Z,47.90
2017-03-17T12:21:57.040Z,56.98
2017-03-17T12:22:55.613Z,46.95
2017-03-17T12:23:54.162Z,44.17
2017-03-17T12:24:53.451Z,54.78
2017-03-17T12:25:52.405Z,48.22
2017-03-17T12:26:51.360Z,45.92
2017-03-17T12:27:50.258Z,46.88
2017-03-17T12:28:49.460Z,50.30
2017-03-17T12:29:48.373Z,49.72
2017-03-17T12:30:47.613Z,46.77
2017-03-17T12:31:46.558Z,41.75
2017-03-17T12:32:45.490Z,46.68
2017-03-17T12:33:44.405Z,44.17
2017-03-17T12:34:43.356Z,35.18
2017-03-17T12:35:42.501Z,38.38
2017-03-17T12:36:41.990Z,29.98
2017-03-17T12:37:40.906Z,28.37
2017-03-17T12:38:40.410Z,24.85
2017-03-17T12:39:40.361Z,31.52
2017-03-17T12:40:40.038Z,27.82
2017-03-17T12:41:38.604Z,26.20
2017-03-17T12:42:37.829Z,20.78
2017-03-17T12:43:36.852Z,25.93
2017-03-17T12:44:35.802Z,24.63
2017-03-17T12:45:34.731Z,20.78
2017-03-17T12:46:33.632Z,25.88
2017-03-17T12:47:33.464Z,22.02
2017-03-17T12:48:32.322Z,22.85
2017-03-17T12:49:31.240Z,24.53